createdAt,value
2018-12-13T00:00:57.410Z,92.38
2018-12-13T00:01:57.146Z,92.23
2018-12-13T00:02:57.131Z,92.38
2018-12-13T00:03:57.153Z,92.28
2018-12-13T00:04:57.103Z,92.42
2018-12-13T00:05:57.087Z,92.28
2018-12-13T00:06:57.071Z,92.52
2018-12-13T00:07:57.057Z,92.28
2018-12-13T00:08:57.040Z,92.23
2018-12-13T00:09:57.029Z,92.47
2018-12-13T00:10:57.013Z,92.76
2018-12-13T00:11:56.999Z,93.42
2018-12-13T00:12:56.984Z,92.85
2018-12-13T00:13:56.974Z,93.13
2018-12-13T00:14:56.962Z,93.04
2018-12-13T00:15:56.941Z,93.23
2018-12-13T00:16:56.927Z,93.32
2018-12-13T00:17:56.918Z,93.51
2018-12-13T00:18:56.897Z,93.42
2018-12-13T00:19:56.882Z,93.04
2018-12-13T00:20:56.869Z,92.94
2018-12-13T00:21:56.854Z,93.23
2018-12-13T00:22:56.841Z,93.04
2018-12-13T00:23:56.823Z,92.85
2018-12-13T00:24:56.810Z,93.42
2018-12-13T00:25:56.795Z,93.51
2018-12-13T00:26:56.780Z,93.23
2018-12-13T00:27:56.768Z,93.32
2018-12-13T00:28:56.750Z,93.8
2018-12-13T00:29:56.737Z,93.13
2018-12-13T00:30:56.723Z,93.23
2018-12-13T00:31:56.710Z,93.32
2018-12-13T00:32:56.694Z,93.32
2018-12-13T00:33:56.680Z,93.23
2018-12-13T00:34:56.661Z,93.13
2018-12-13T00:35:56.650Z,93.32
2018-12-13T00:36:56.639Z,92.85
2018-12-13T00:37:56.622Z,92.85
2018-12-13T00:38:56.606Z,93.23
2018-12-13T00:39:56.587Z,93.04
2018-12-13T00:40:56.577Z,92.66
2018-12-13T00:41:56.562Z,92.85
2018-12-13T00:42:56.587Z,93.32
2018-12-13T00:43:56.531Z,92.94
2018-12-13T00:44:56.516Z,92.57
2018-12-13T00:45:56.498Z,92.66
2018-12-13T00:46:56.486Z,92.94
2018-12-13T00:47:56.473Z,93.04
2018-12-13T00:48:56.455Z,93.13
2018-12-13T00:49:56.440Z,93.13
2018-12-13T00:50:56.429Z,93.13
2018-12-13T00:51:56.413Z,92.85
2018-12-13T00:52:56.397Z,93.04
2018-12-13T00:53:56.401Z,92.94
2018-12-13T00:54:56.368Z,92.94
2018-12-13T00:55:56.353Z,92.19
2018-12-13T00:56:56.338Z,92.09
2018-12-13T00:57:56.326Z,92.38
2018-12-13T00:58:56.309Z,92.38
2018-12-13T00:59:56.294Z,92.19
2018-12-13T01:00:56.284Z,92.09
2018-12-13T01:01:56.268Z,92.28
2018-12-13T01:02:56.310Z,92.47
2018-12-13T01:03:56.236Z,92.19
2018-12-13T01:04:56.221Z,92.28
2018-12-13T01:05:56.208Z,92.94
2018-12-13T01:06:56.193Z,92.28
2018-12-13T01:07:56.178Z,92.19
2018-12-13T01:08:56.163Z,92.28
2018-12-13T01:09:56.151Z,92.19
2018-12-13T01:10:56.190Z,92.38
2018-12-13T01:11:56.131Z,92.47
2018-12-13T01:12:56.115Z,92.28
2018-12-13T01:13:56.091Z,92.28
2018-12-13T01:14:56.076Z,92.66
2018-12-13T01:15:56.060Z,92.19
2018-12-13T01:16:56.050Z,93.04
2018-12-13T01:17:56.034Z,92.94
2018-12-13T01:18:56.019Z,92.09
2018-12-13T01:19:56.004Z,92.09
2018-12-13T01:20:55.987Z,92.38
2018-12-13T01:21:55.972Z,92.57
2018-12-13T01:22:55.956Z,92.28
2018-12-13T01:23:55.992Z,92.38
2018-12-13T01:24:55.934Z,92.38
2018-12-13T01:25:55.915Z,92.38
2018-12-13T01:26:55.899Z,92.57
2018-12-13T01:27:55.897Z,92.57
2018-12-13T01:28:55.871Z,92.47
2018-12-13T01:29:55.856Z,92.28
2018-12-13T01:30:55.844Z,92.47
2018-12-13T01:31:55.826Z,92.38
2018-12-13T01:32:55.813Z,92.47
2018-12-13T01:33:55.797Z,92.42
2018-12-13T01:34:55.782Z,92.19
2018-12-13T01:35:55.770Z,92.38
2018-12-13T01:36:55.753Z,92.42
2018-12-13T01:37:55.738Z,92.38
2018-12-13T01:38:55.725Z,92.38
2018-12-13T01:39:55.712Z,92.28
2018-12-13T01:40:55.695Z,92.28
2018-12-13T01:41:55.680Z,92.28
2018-12-13T01:42:55.666Z,92.19
2018-12-13T01:43:55.651Z,92.38
2018-12-13T01:44:55.638Z,92.38
2018-12-13T01:45:55.624Z,92.28
2018-12-13T01:46:55.614Z,92.28
2018-12-13T01:47:55.593Z,92.42
2018-12-13T01:48:55.579Z,92.76
2018-12-13T01:49:55.566Z,92.94
2018-12-13T01:50:55.551Z,92.94
2018-12-13T01:51:55.538Z,92.94
2018-12-13T01:52:55.524Z,93.13
2018-12-13T01:53:55.508Z,92.19
2018-12-13T01:54:55.491Z,92.85
2018-12-13T01:55:55.479Z,93.13
2018-12-13T01:56:55.465Z,92.76
2018-12-13T01:57:55.450Z,92.28
2018-12-13T01:58:55.433Z,92.38
2018-12-13T01:59:55.419Z,92.47
2018-12-13T02:00:55.405Z,92.38
2018-12-13T02:01:55.390Z,91.81
2018-12-13T02:02:55.375Z,91.66
2018-12-13T02:03:55.369Z,91.38
2018-12-13T02:04:55.349Z,91.38
2018-12-13T02:05:55.583Z,91.95
2018-12-13T02:07:01.189Z,92.33
2018-12-13T02:07:55.312Z,92.42
2018-12-13T02:08:55.288Z,92.52
2018-12-13T02:09:55.275Z,92.42
2018-12-13T02:10:55.257Z,92.42
2018-12-13T02:11:55.245Z,92.04
2018-12-13T02:12:55.233Z,92.04
2018-12-13T02:13:55.213Z,91.85
2018-12-13T02:14:55.202Z,91.95
2018-12-13T02:15:55.191Z,91.66
2018-12-13T02:16:55.175Z,91.47
2018-12-13T02:17:55.156Z,91.85
2018-12-13T02:18:55.144Z,91.47
2018-12-13T02:19:55.130Z,91.95
2018-12-13T02:20:55.115Z,91.57
2018-12-13T02:21:55.133Z,91.66
2018-12-13T02:22:55.088Z,91.57
2018-12-13T02:23:55.078Z,91.66
2018-12-13T02:24:55.057Z,91.95
2018-12-13T02:25:55.046Z,92.04
2018-12-13T02:26:55.030Z,92.04
2018-12-13T02:27:55.015Z,91.95
2018-12-13T02:28:55.000Z,92.14
2018-12-13T02:29:54.984Z,92.23
2018-12-13T02:30:54.971Z,92.52
2018-12-13T02:31:54.956Z,92.23
2018-12-13T02:32:54.943Z,92.42
2018-12-13T02:33:54.934Z,92.33
2018-12-13T02:34:54.935Z,92.23
2018-12-13T02:35:54.899Z,91.95
2018-12-13T02:36:55.137Z,92.42
2018-12-13T02:37:54.877Z,92.14
2018-12-13T02:38:54.857Z,91.95
2018-12-13T02:39:54.846Z,91.76
2018-12-13T02:40:54.833Z,91.57
2018-12-13T02:41:54.816Z,91.57
2018-12-13T02:42:54.806Z,91.95
2018-12-13T02:43:54.788Z,91.85
2018-12-13T02:44:54.777Z,92.14
2018-12-13T02:45:54.759Z,91.47
2018-12-13T02:46:54.745Z,91.66
2018-12-13T02:47:54.733Z,92.14
2018-12-13T02:48:54.716Z,92.23
2018-12-13T02:49:54.699Z,92.61
2018-12-13T02:50:54.685Z,92.71
2018-12-13T02:51:54.674Z,92.23
2018-12-13T02:52:54.661Z,92.33
2018-12-13T02:53:54.648Z,93.18
2018-12-13T02:54:54.630Z,92.52
2018-12-13T02:55:54.625Z,92.23
2018-12-13T02:56:54.603Z,92.14
2018-12-13T02:57:54.590Z,92.61
2018-12-13T02:58:54.574Z,92.9
2018-12-13T02:59:54.561Z,92.33
2018-12-13T03:00:54.542Z,92.52
2018-12-13T03:01:54.532Z,92.42
2018-12-13T03:02:54.517Z,92.14
2018-12-13T03:03:54.501Z,92.23
2018-12-13T03:04:54.487Z,92.14
2018-12-13T03:05:54.476Z,92.23
2018-12-13T03:06:54.461Z,92.42
2018-12-13T03:07:54.446Z,92.14
2018-12-13T03:08:54.432Z,92.33
2018-12-13T03:09:54.415Z,92.33
2018-12-13T03:10:54.403Z,92.23
2018-12-13T03:11:54.428Z,92.52
2018-12-13T03:12:54.375Z,92.42
2018-12-13T03:13:54.369Z,92.52
2018-12-13T03:14:54.346Z,92.23
2018-12-13T03:15:54.336Z,92.23
2018-12-13T03:16:54.317Z,92.23
2018-12-13T03:17:54.312Z,92.61
2018-12-13T03:18:54.289Z,92.61
2018-12-13T03:19:54.279Z,92.71
2018-12-13T03:20:54.261Z,93.08
2018-12-13T03:21:54.247Z,93.08
2018-12-13T03:22:54.236Z,92.99
2018-12-13T03:23:54.219Z,93.18
2018-12-13T03:24:54.201Z,93.08
2018-12-13T03:25:54.186Z,93.08
2018-12-13T03:26:54.176Z,92.99
2018-12-13T03:27:54.163Z,92.99
2018-12-13T03:28:54.149Z,92.9
2018-12-13T03:29:54.131Z,92.99
2018-12-13T03:30:54.129Z,93.18
2018-12-13T03:31:54.109Z,93.46
2018-12-13T03:32:54.097Z,93.27
2018-12-13T03:33:54.074Z,93.37
2018-12-13T03:34:54.066Z,93.37
2018-12-13T03:35:54.049Z,93.08
2018-12-13T03:36:54.035Z,92.66
2018-12-13T03:37:54.018Z,92.9
2018-12-13T03:38:54.001Z,92.94
2018-12-13T03:39:53.992Z,92.14
2018-12-13T03:40:53.975Z,93.18
2018-12-13T03:41:53.957Z,92.99
2018-12-13T03:42:53.945Z,92.99
2018-12-13T03:43:53.932Z,92.8
2018-12-13T03:44:53.914Z,93.08
2018-12-13T03:45:53.901Z,92.23
2018-12-13T03:46:53.888Z,93.27
2018-12-13T03:47:53.873Z,93.18
2018-12-13T03:48:53.861Z,92.23
2018-12-13T03:49:53.845Z,92.14
2018-12-13T03:50:53.834Z,92.8
2018-12-13T03:51:53.815Z,92.9
2018-12-13T03:52:53.799Z,93.18
2018-12-13T03:53:53.786Z,92.71
2018-12-13T03:54:53.772Z,93.08
2018-12-13T03:55:53.521Z,92.8
2018-12-13T03:56:53.745Z,92.8
2018-12-13T03:57:53.726Z,92.8
2018-12-13T03:58:53.718Z,93.32
2018-12-13T03:59:53.698Z,92.66
2018-12-13T04:00:53.683Z,92.85
2018-12-13T04:01:53.675Z,93.32
2018-12-13T04:02:53.659Z,92.66
2018-12-13T04:03:53.642Z,92.76
2018-12-13T04:04:53.623Z,92.47
2018-12-13T04:05:53.614Z,92
2018-12-13T04:06:53.594Z,92.23
2018-12-13T04:07:53.583Z,92.33
2018-12-13T04:08:53.575Z,92.33
2018-12-13T04:09:53.556Z,92.28
2018-12-13T04:10:53.538Z,92.42
2018-12-13T04:11:53.522Z,92.42
2018-12-13T04:12:53.513Z,92.8
2018-12-13T04:13:53.505Z,92.04
2018-12-13T04:14:53.478Z,91.57
2018-12-13T04:15:53.465Z,92.14
2018-12-13T04:16:53.463Z,92.14
2018-12-13T04:17:53.437Z,91.47
2018-12-13T04:18:53.421Z,91.76
2018-12-13T04:19:53.407Z,90.91
2018-12-13T04:20:53.404Z,90.62
2018-12-13T04:21:53.389Z,89.96
2018-12-13T04:22:53.367Z,90.24
2018-12-13T04:23:53.352Z,90.34
2018-12-13T04:24:53.338Z,90.62
2018-12-13T04:25:53.322Z,90.91
2018-12-13T04:26:53.308Z,91.19
2018-12-13T04:27:53.296Z,90.72
2018-12-13T04:28:53.284Z,90.91
2018-12-13T04:29:53.263Z,91.09
2018-12-13T04:30:53.251Z,90.72
2018-12-13T04:31:53.237Z,90.91
2018-12-13T04:32:53.223Z,90.62
2018-12-13T04:33:53.213Z,90.15
2018-12-13T04:34:53.197Z,90.53
2018-12-13T04:35:53.181Z,90.91
2018-12-13T04:36:53.173Z,91.85
2018-12-13T04:37:53.150Z,91.76
2018-12-13T04:38:53.140Z,91.66
2018-12-13T04:39:53.121Z,91.47
2018-12-13T04:40:53.128Z,91.09
2018-12-13T04:41:53.095Z,92.04
2018-12-13T04:42:53.081Z,92.42
2018-12-13T04:43:53.074Z,92.14
2018-12-13T04:44:53.055Z,91.85
2018-12-13T04:45:53.039Z,91.85
2018-12-13T04:46:52.789Z,91.47
2018-12-13T04:47:53.014Z,91.85
2018-12-13T04:48:52.993Z,91.57
2018-12-13T04:49:54.395Z,91.76
2018-12-13T04:50:52.971Z,91.85
2018-12-13T04:51:52.956Z,91.76
2018-12-13T04:52:52.939Z,91.95
2018-12-13T04:53:52.934Z,91.76
2018-12-13T04:54:52.910Z,91.66
2018-12-13T04:55:52.894Z,91.66
2018-12-13T04:56:52.883Z,91.9
2018-12-13T04:57:52.865Z,92.14
2018-12-13T04:58:52.858Z,91.95
2018-12-13T04:59:52.839Z,91.66
2018-12-13T05:00:52.825Z,92.04
2018-12-13T05:01:52.812Z,91.95
2018-12-13T05:02:52.796Z,91.85
2018-12-13T05:03:52.786Z,91.57
2018-12-13T05:04:52.767Z,91.57
2018-12-13T05:05:52.756Z,91.47
2018-12-13T05:06:52.739Z,91.66
2018-12-13T05:07:52.728Z,91.95
2018-12-13T05:08:52.711Z,91.85
2018-12-13T05:09:52.708Z,90.91
2018-12-13T05:10:52.687Z,91.19
2018-12-13T05:11:52.667Z,92.04
2018-12-13T05:12:52.906Z,91.57
2018-12-13T05:13:52.638Z,92.14
2018-12-13T05:14:52.629Z,91.85
2018-12-13T05:15:52.612Z,91.95
2018-12-13T05:16:52.600Z,92.14
2018-12-13T05:17:52.584Z,92.42
2018-12-13T05:18:52.574Z,92.42
2018-12-13T05:19:52.556Z,91.95
2018-12-13T05:20:52.543Z,92.23
2018-12-13T05:21:52.527Z,92.42
2018-12-13T05:22:52.517Z,92.61
2018-12-13T05:23:52.502Z,92.42
2018-12-13T05:24:52.484Z,92.33
2018-12-13T05:25:52.473Z,92.23
2018-12-13T05:26:52.458Z,92.52
2018-12-13T05:27:52.444Z,92.23
2018-12-13T05:28:52.430Z,92.23
2018-12-13T05:29:52.412Z,92.61
2018-12-13T05:30:52.406Z,92.52
2018-12-13T05:31:52.386Z,92.61
2018-12-13T05:32:52.371Z,92.23
2018-12-13T05:33:52.362Z,92.23
2018-12-13T05:34:52.344Z,92.23
2018-12-13T05:35:52.335Z,92.42
2018-12-13T05:36:52.316Z,92.52
2018-12-13T05:37:52.300Z,92.33
2018-12-13T05:38:52.283Z,92.52
2018-12-13T05:39:52.273Z,92.42
2018-12-13T05:40:52.257Z,92.33
2018-12-13T05:41:52.241Z,92.52
2018-12-13T05:42:52.240Z,92.61
2018-12-13T05:43:52.462Z,92.42
2018-12-13T05:44:52.198Z,93.08
2018-12-13T05:45:52.182Z,92.42
2018-12-13T05:46:52.170Z,93.18
2018-12-13T05:47:52.158Z,93.18
2018-12-13T05:48:52.142Z,92.23
2018-12-13T05:49:52.130Z,92.71
2018-12-13T05:50:52.117Z,92.52
2018-12-13T05:51:52.104Z,92.14
2018-12-13T05:52:52.085Z,91.85
2018-12-13T05:53:52.076Z,91.38
2018-12-13T05:54:52.058Z,91.76
2018-12-13T05:55:52.043Z,91.76
2018-12-13T05:56:52.027Z,91.76
2018-12-13T05:57:51.774Z,91.85
2018-12-13T05:58:52.000Z,91.85
2018-12-13T05:59:51.983Z,91.95
2018-12-13T06:00:51.967Z,91.66
2018-12-13T06:01:51.958Z,91.47
2018-12-13T06:02:51.939Z,90.91
2018-12-13T06:03:51.940Z,91.57
2018-12-13T06:04:51.914Z,91
2018-12-13T06:05:51.935Z,91.76
2018-12-13T06:06:51.885Z,91.85
2018-12-13T06:07:57.357Z,91.57
2018-12-13T06:08:51.862Z,91.57
2018-12-13T06:09:51.840Z,92.23
2018-12-13T06:10:51.827Z,92.14
2018-12-13T06:11:51.811Z,92.23
2018-12-13T06:12:51.796Z,91.57
2018-12-13T06:13:51.781Z,91.76
2018-12-13T06:14:51.767Z,91.66
2018-12-13T06:15:51.754Z,91.47
2018-12-13T06:16:51.740Z,92.04
2018-12-13T06:17:51.724Z,91.76
2018-12-13T06:18:51.718Z,90.91
2018-12-13T06:19:51.699Z,90.72
2018-12-13T06:20:51.686Z,91
2018-12-13T06:21:51.671Z,90.81
2018-12-13T06:22:51.660Z,91.09
2018-12-13T06:23:51.640Z,91.28
2018-12-13T06:24:51.629Z,90.76
2018-12-13T06:25:52.964Z,91.14
2018-12-13T06:26:51.601Z,91.24
2018-12-13T06:27:51.629Z,90.86
2018-12-13T06:28:51.577Z,90.95
2018-12-13T06:29:51.556Z,91.9
2018-12-13T06:30:51.542Z,91.8
2018-12-13T06:31:51.289Z,91.99
2018-12-13T06:32:51.513Z,91.71
2018-12-13T06:33:51.499Z,91.8
2018-12-13T06:34:51.487Z,91.8
2018-12-13T06:35:51.470Z,90.86
2018-12-13T06:36:51.459Z,91.52
2018-12-13T06:37:51.440Z,91.33
2018-12-13T06:38:51.428Z,91.61
2018-12-13T06:39:51.915Z,90.95
2018-12-13T06:40:51.404Z,90.76
2018-12-13T06:41:51.384Z,90.76
2018-12-13T06:42:51.371Z,91.14
2018-12-13T06:43:52.302Z,91.8
2018-12-13T06:44:51.344Z,91.8
2018-12-13T06:45:51.328Z,91.8
2018-12-13T06:46:51.314Z,91.9
2018-12-13T06:47:51.302Z,91.05
2018-12-13T06:48:51.289Z,90.95
2018-12-13T06:49:51.275Z,91.9
2018-12-13T06:50:51.258Z,91.8
2018-12-13T06:51:51.248Z,91.52
2018-12-13T06:52:51.233Z,91.52
2018-12-13T06:53:51.221Z,91.8
2018-12-13T06:54:51.202Z,91.99
2018-12-13T06:55:51.188Z,91.9
2018-12-13T06:56:51.176Z,92.09
2018-12-13T06:57:51.157Z,91.99
2018-12-13T06:58:51.150Z,92.09
2018-12-13T06:59:51.131Z,92.28
2018-12-13T07:00:51.120Z,91.99
2018-12-13T07:01:51.103Z,91.99
2018-12-13T07:02:51.090Z,92.28
2018-12-13T07:03:50.836Z,92.18
2018-12-13T07:04:51.061Z,92.47
2018-12-13T07:05:51.052Z,92.47
2018-12-13T07:06:51.032Z,92.66
2018-12-13T07:07:51.020Z,92.47
2018-12-13T07:08:51.004Z,92.47
2018-12-13T07:09:50.996Z,92.18
2018-12-13T07:10:50.978Z,91.99
2018-12-13T07:11:50.966Z,92.38
2018-12-13T07:12:50.704Z,92.38
2018-12-13T07:13:50.970Z,92.47
2018-12-13T07:14:50.923Z,92.66
2018-12-13T07:15:50.907Z,92.47
2018-12-13T07:16:50.894Z,92.28
2018-12-13T07:17:50.883Z,91.76
2018-12-13T07:18:50.867Z,91.8
2018-12-13T07:19:50.850Z,91.99
2018-12-13T07:20:50.836Z,92.18
2018-12-13T07:21:50.824Z,91.52
2018-12-13T07:22:50.810Z,92.18
2018-12-13T07:23:50.792Z,92.38
2018-12-13T07:24:50.780Z,92.09
2018-12-13T07:25:50.767Z,92.09
2018-12-13T07:26:50.751Z,92.57
2018-12-13T07:27:50.738Z,93.23
2018-12-13T07:28:50.725Z,93.23
2018-12-13T07:29:50.709Z,92.99
2018-12-13T07:30:50.702Z,92.42
2018-12-13T07:31:50.682Z,92.33
2018-12-13T07:32:50.668Z,92.52
2018-12-13T07:33:50.652Z,92.42
2018-12-13T07:34:50.640Z,92.52
2018-12-13T07:35:50.626Z,92.42
2018-12-13T07:36:50.613Z,92.42
2018-12-13T07:37:50.596Z,92.71
2018-12-13T07:38:50.585Z,92.9
2018-12-13T07:39:50.569Z,92.99
2018-12-13T07:40:50.555Z,93.08
2018-12-13T07:41:50.542Z,93.08
2018-12-13T07:42:50.528Z,93.08
2018-12-13T07:43:50.518Z,93.08
2018-12-13T07:44:50.496Z,93.18
2018-12-13T07:45:50.486Z,93.08
2018-12-13T07:46:50.474Z,93.18
2018-12-13T07:47:50.455Z,92.23
2018-12-13T07:48:56.192Z,92.61
2018-12-13T07:49:50.442Z,92.23
2018-12-13T07:50:50.414Z,91.95
2018-12-13T07:51:50.398Z,91.85
2018-12-13T07:52:50.386Z,91.66
2018-12-13T07:53:50.371Z,92.09
2018-12-13T07:54:50.355Z,92.18
2018-12-13T07:55:50.342Z,91.71
2018-12-13T07:56:50.328Z,92.09
2018-12-13T07:57:50.316Z,92.28
2018-12-13T07:58:50.299Z,93.04
2018-12-13T07:59:50.283Z,93.23
2018-12-13T08:00:50.271Z,93.18
2018-12-13T08:01:50.260Z,92.57
2018-12-13T08:02:50.244Z,92.61
2018-12-13T08:03:50.228Z,92.14
2018-12-13T08:04:50.214Z,91.99
2018-12-13T08:05:50.206Z,92.18
2018-12-13T08:06:50.189Z,92.09
2018-12-13T08:07:50.178Z,91.99
2018-12-13T08:08:50.158Z,92.28
2018-12-13T08:09:50.143Z,93.04
2018-12-13T08:10:50.131Z,92.94
2018-12-13T08:11:50.118Z,93.04
2018-12-13T08:12:50.103Z,92.47
2018-12-13T08:13:50.089Z,92.52
2018-12-13T08:14:50.072Z,92.28
2018-12-13T08:15:50.105Z,92.18
2018-12-13T08:16:50.055Z,92.57
2018-12-13T08:17:50.034Z,92.47
2018-12-13T08:18:50.018Z,92.28
2018-12-13T08:19:50.252Z,92.66
2018-12-13T08:20:49.993Z,93.13
2018-12-13T08:21:49.975Z,93.04
2018-12-13T08:22:50.009Z,92.94
2018-12-13T08:23:49.950Z,92.99
2018-12-13T08:24:49.935Z,92.85
2018-12-13T08:25:49.918Z,92.99
2018-12-13T08:26:49.906Z,92.23
2018-12-13T08:27:49.892Z,93.13
2018-12-13T08:28:49.878Z,92.42
2018-12-13T08:29:49.865Z,92.18
2018-12-13T08:30:49.853Z,93.04
2018-12-13T08:31:49.837Z,92.47
2018-12-13T08:32:49.824Z,93.23
2018-12-13T08:33:49.816Z,92.94
2018-12-13T08:34:49.798Z,93.23
2018-12-13T08:35:49.784Z,92.94
2018-12-13T08:36:49.775Z,92.47
2018-12-13T08:37:49.754Z,92.66
2018-12-13T08:38:49.743Z,93.51
2018-12-13T08:39:49.727Z,93.41
2018-12-13T08:40:49.720Z,93.7
2018-12-13T08:41:49.706Z,93.61
2018-12-13T08:42:49.687Z,93.37
2018-12-13T08:43:49.685Z,93.94
2018-12-13T08:44:49.658Z,93.37
2018-12-13T08:45:49.645Z,93.56
2018-12-13T08:46:49.638Z,93.37
2018-12-13T08:47:49.618Z,92.9
2018-12-13T08:48:49.604Z,93.27
2018-12-13T08:49:49.590Z,93.41
2018-12-13T08:50:49.826Z,93.41
2018-12-13T08:51:49.562Z,93.41
2018-12-13T08:52:49.556Z,93.61
2018-12-13T08:53:49.536Z,93.37
2018-12-13T08:54:49.523Z,93.84
2018-12-13T08:55:49.509Z,93.75
2018-12-13T08:56:49.493Z,93.56
2018-12-13T08:57:49.482Z,93.37
2018-12-13T08:58:49.468Z,93.08
2018-12-13T08:59:49.451Z,92.99
2018-12-13T09:00:49.441Z,92.99
2018-12-13T09:01:49.423Z,92.28
2018-12-13T09:02:49.414Z,92.66
2018-12-13T09:03:49.398Z,93.13
2018-12-13T09:04:49.390Z,93.04
2018-12-13T09:05:49.369Z,93.13
2018-12-13T09:06:49.357Z,93.13
2018-12-13T09:07:49.342Z,92.94
2018-12-13T09:08:49.328Z,93.41
2018-12-13T09:09:49.313Z,93.41
2018-12-13T09:10:49.300Z,94.08
2018-12-13T09:11:49.287Z,94.08
2018-12-13T09:12:49.279Z,94.08
2018-12-13T09:13:49.259Z,93.8
2018-12-13T09:14:49.252Z,93.8
2018-12-13T09:15:49.233Z,93.37
2018-12-13T09:16:49.219Z,93.13
2018-12-13T09:17:49.206Z,93.23
2018-12-13T09:18:49.197Z,92.47
2018-12-13T09:19:49.179Z,92.66
2018-12-13T09:20:49.209Z,91.9
2018-12-13T09:21:49.148Z,92.57
2018-12-13T09:22:49.136Z,92.28
2018-12-13T09:23:49.126Z,92.66
2018-12-13T09:24:49.108Z,92.57
2018-12-13T09:25:49.099Z,92.18
2018-12-13T09:26:49.082Z,92.28
2018-12-13T09:27:49.073Z,92.09
2018-12-13T09:28:49.057Z,91.61
2018-12-13T09:29:49.040Z,91.71
2018-12-13T09:30:49.030Z,92.18
2018-12-13T09:31:49.015Z,91.99
2018-12-13T09:32:49.000Z,92.47
2018-12-13T09:33:48.994Z,92.09
2018-12-13T09:34:48.972Z,92.52
2018-12-13T09:35:48.959Z,92.28
2018-12-13T09:36:48.944Z,92.85
2018-12-13T09:37:50.126Z,94.65
2018-12-13T09:38:48.916Z,93.99
2018-12-13T09:39:48.906Z,93.41
2018-12-13T09:40:48.894Z,93.61
2018-12-13T09:41:48.880Z,92.94
2018-12-13T09:42:48.867Z,93.89
2018-12-13T09:43:48.851Z,93.61
2018-12-13T09:44:48.836Z,93.41
2018-12-13T09:45:48.826Z,92.76
2018-12-13T09:46:48.819Z,92.94
2018-12-13T09:47:48.795Z,93.13
2018-12-13T09:48:49.407Z,93.13
2018-12-13T09:49:48.767Z,92.94
2018-12-13T09:50:48.754Z,93.32
2018-12-13T09:51:48.741Z,92.94
2018-12-13T09:52:48.728Z,93.37
2018-12-13T09:53:48.716Z,93.04
2018-12-13T09:54:48.701Z,92.52
2018-12-13T09:55:48.687Z,92.33
2018-12-13T09:56:48.672Z,92.47
2018-12-13T09:57:48.658Z,92.28
2018-12-13T09:58:48.645Z,92.28
2018-12-13T09:59:48.633Z,93.75
2018-12-13T10:00:48.619Z,92.9
2018-12-13T10:01:48.606Z,93.08
2018-12-13T10:02:48.594Z,93.08
2018-12-13T10:03:48.579Z,92.9
2018-12-13T10:04:48.611Z,93.37
2018-12-13T10:05:48.551Z,93.27
2018-12-13T10:06:48.537Z,93.27
2018-12-13T10:07:48.527Z,93.37
2018-12-13T10:08:48.895Z,93.13
2018-12-13T10:09:48.499Z,93.46
2018-12-13T10:10:48.495Z,93.65
2018-12-13T10:11:48.471Z,93.08
2018-12-13T10:12:48.456Z,92.99
2018-12-13T10:13:48.445Z,94.23
2018-12-13T10:14:48.431Z,93.08
2018-12-13T10:15:48.418Z,93.56
2018-12-13T10:16:48.404Z,93.94
2018-12-13T10:17:48.394Z,94.51
2018-12-13T10:18:48.377Z,95.27
2018-12-13T10:19:48.363Z,94.7
2018-12-13T10:20:48.351Z,94.79
2018-12-13T10:21:48.336Z,93.84
2018-12-13T10:22:48.324Z,93.46
2018-12-13T10:23:48.311Z,93.56
2018-12-13T10:24:48.300Z,93.46
2018-12-13T10:25:48.283Z,93.46
2018-12-13T10:26:48.269Z,92.8
2018-12-13T10:27:48.257Z,93.08
2018-12-13T10:28:48.242Z,93.18
2018-12-13T10:29:48.230Z,92.52
2018-12-13T10:30:48.221Z,92.61
2018-12-13T10:31:48.205Z,92.33
2018-12-13T10:32:48.190Z,93.08
2018-12-13T10:33:48.178Z,93.08
2018-12-13T10:34:48.163Z,93.27
2018-12-13T10:35:48.156Z,93.37
2018-12-13T10:36:48.141Z,93.37
2018-12-13T10:37:48.122Z,93.37
2018-12-13T10:38:52.893Z,93.46
2018-12-13T10:39:48.094Z,93.27
2018-12-13T10:40:48.082Z,93.46
2018-12-13T10:41:48.068Z,93.18
2018-12-13T10:42:48.051Z,93.18
2018-12-13T10:43:48.038Z,92.8
2018-12-13T10:44:48.024Z,93.27
2018-12-13T10:45:48.013Z,92.99
2018-12-13T10:46:48.003Z,92.9
2018-12-13T10:47:47.990Z,93.46
2018-12-13T10:48:47.974Z,93.94
2018-12-13T10:49:47.960Z,93.37
2018-12-13T10:50:47.951Z,94.23
2018-12-13T10:51:47.932Z,93.75
2018-12-13T10:52:47.929Z,94.03
2018-12-13T10:53:47.913Z,94.03
2018-12-13T10:54:47.900Z,93.94
2018-12-13T10:55:47.887Z,93.94
2018-12-13T10:56:47.873Z,94.79
2018-12-13T10:57:47.863Z,94.79
2018-12-13T10:58:47.847Z,95.65
2018-12-13T10:59:47.835Z,95.31
2018-12-13T11:00:47.823Z,95.6
2018-12-13T11:01:47.807Z,95.5
2018-12-13T11:02:47.801Z,95.03
2018-12-13T11:03:47.780Z,95.22
2018-12-13T11:04:47.771Z,96.36
2018-12-13T11:05:47.760Z,95.5
2018-12-13T11:06:47.740Z,95.41
2018-12-13T11:07:47.728Z,95.79
2018-12-13T11:08:47.714Z,95.5
2018-12-13T11:09:47.703Z,95.69
2018-12-13T11:10:47.689Z,95.31
2018-12-13T11:11:47.674Z,95.6
2018-12-13T11:12:47.670Z,94.37
2018-12-13T11:13:47.650Z,94.56
2018-12-13T11:14:47.631Z,93.8
2018-12-13T11:15:47.618Z,94.56
2018-12-13T11:16:47.607Z,94.08
2018-12-13T11:17:47.593Z,94.46
2018-12-13T11:18:47.577Z,94.65
2018-12-13T11:19:47.566Z,95.41
2018-12-13T11:20:47.551Z,96.45
2018-12-13T11:21:47.537Z,96.08
2018-12-13T11:22:47.528Z,95.88
2018-12-13T11:23:47.516Z,95.22
2018-12-13T11:24:47.501Z,95.41
2018-12-13T11:25:47.487Z,95.5
2018-12-13T11:26:47.720Z,96.26
2018-12-13T11:27:47.455Z,95.79
2018-12-13T11:28:47.442Z,95.41
2018-12-13T11:29:47.434Z,95.69
2018-12-13T11:30:47.415Z,95.98
2018-12-13T11:31:47.401Z,95.69
2018-12-13T11:32:47.394Z,95.98
2018-12-13T11:33:47.376Z,95.6
2018-12-13T11:34:47.363Z,95.22
2018-12-13T11:35:47.347Z,95.31
2018-12-13T11:36:47.335Z,95.5
2018-12-13T11:37:47.320Z,95.5
2018-12-13T11:38:47.307Z,95.22
2018-12-13T11:39:47.293Z,94.27
2018-12-13T11:40:47.283Z,94.37
2018-12-13T11:41:47.267Z,94.46
2018-12-13T11:42:47.253Z,96.83
2018-12-13T11:43:47.239Z,95.31
2018-12-13T11:44:47.225Z,95.5
2018-12-13T11:45:47.212Z,95.41
2018-12-13T11:46:46.957Z,95.98
2018-12-13T11:47:47.186Z,95.6
2018-12-13T11:48:47.171Z,95.5
2018-12-13T11:49:47.160Z,95.69
2018-12-13T11:50:46.904Z,95.41
2018-12-13T11:51:47.137Z,95.12
2018-12-13T11:52:47.254Z,94.84
2018-12-13T11:53:47.103Z,95.12
2018-12-13T11:54:47.091Z,96.08
2018-12-13T11:55:47.081Z,95.41
2018-12-13T11:56:47.063Z,95.6
2018-12-13T11:57:47.052Z,95.31
2018-12-13T11:58:47.035Z,95.5
2018-12-13T11:59:47.020Z,96.88
2018-12-13T12:00:47.010Z,96.12
2018-12-13T12:01:46.997Z,97.16
2018-12-13T12:02:46.984Z,95.84
2018-12-13T12:03:46.976Z,96.78
2018-12-13T12:04:46.955Z,96.22
2018-12-13T12:05:46.939Z,95.84
2018-12-13T12:06:46.923Z,95.36
2018-12-13T12:07:46.913Z,96.03
2018-12-13T12:08:46.906Z,95.55
2018-12-13T12:09:46.882Z,95.79
2018-12-13T12:10:46.875Z,95.98
2018-12-13T12:11:46.854Z,95.41
2018-12-13T12:12:46.840Z,96.17
2018-12-13T12:13:46.827Z,95.88
2018-12-13T12:14:46.814Z,96.26
2018-12-13T12:15:46.799Z,95.6
2018-12-13T12:16:46.786Z,95.31
2018-12-13T12:17:46.775Z,95.22
2018-12-13T12:18:46.758Z,95.41
2018-12-13T12:19:46.741Z,95.5
2018-12-13T12:20:46.737Z,95.12
2018-12-13T12:21:46.725Z,95.22
2018-12-13T12:22:46.766Z,95.6
2018-12-13T12:23:46.690Z,96.08
2018-12-13T12:24:46.675Z,95.5
2018-12-13T12:25:46.662Z,95.31
2018-12-13T12:26:46.647Z,95.6
2018-12-13T12:27:46.633Z,95.31
2018-12-13T12:28:46.619Z,95.6
2018-12-13T12:29:46.613Z,95.6
2018-12-13T12:30:46.593Z,95.41
2018-12-13T12:31:46.575Z,96.08
2018-12-13T12:32:46.561Z,95.41
2018-12-13T12:33:46.552Z,96.83
2018-12-13T12:34:46.537Z,96.17
2018-12-13T12:35:46.522Z,96.17
2018-12-13T12:36:46.508Z,95.31
2018-12-13T12:37:46.497Z,95.69
2018-12-13T12:38:46.480Z,95.79
2018-12-13T12:39:46.468Z,95.69
2018-12-13T12:40:46.452Z,95.41
2018-12-13T12:41:46.437Z,95.22
2018-12-13T12:42:46.423Z,95.12
2018-12-13T12:43:46.410Z,95.41
2018-12-13T12:44:46.398Z,96.83
2018-12-13T12:45:46.382Z,96.55
2018-12-13T12:46:46.372Z,96.36
2018-12-13T12:47:46.359Z,96.03
2018-12-13T12:48:46.343Z,96.12
2018-12-13T12:49:46.401Z,96.31
2018-12-13T12:50:46.327Z,95.84
2018-12-13T12:51:46.304Z,96.17
2018-12-13T12:52:46.287Z,95.26
2018-12-13T12:53:46.270Z,96.17
2018-12-13T12:54:46.256Z,96.08